Time;durP1;ratioP1;P1;durP2;ratioP2;P2;SDS_P1;SDS_P2;PMS_P1;PMS_P2;Temp;Humidity;BMP_temperature;BMP_pressure;BME280_temperature;BME280_humidity;BME280_pressure;Samples;Min_cycle;Max_cycle;Signal;HPM_P1;HPM_P2
2024/03/20 00:00:46;;;;;;;26.33;16.27;;;16.00;86.90;;;;;;5092083;28;20093;-78
2024/03/20 00:03:13;;;;;;;22.27;15.60;;;16.00;86.90;;;;;;5091859;28;20075;-77
2024/03/20 00:05:39;;;;;;;24.88;15.15;;;15.90;87.10;;;;;;5091718;28;20051;-78
2024/03/20 00:08:04;;;;;;;27.55;16.48;;;15.80;87.10;;;;;;5091686;28;20484;-82
2024/03/20 00:10:31;;;;;;;24.42;17.60;;;15.80;87.30;;;;;;5092103;28;20035;-79
2024/03/20 00:12:56;;;;;;;24.65;17.05;;;15.70;87.40;;;;;;5091956;28;20511;-79
2024/03/20 00:15:22;;;;;;;23.63;17.88;;;15.70;87.50;;;;;;5091435;28;20128;-78
2024/03/20 00:17:48;;;;;;;26.80;18.52;;;15.70;87.70;;;;;;5091097;28;20500;-78
2024/03/20 00:20:14;;;;;;;29.67;17.52;;;15.60;87.60;;;;;;5091783;28;20047;-78
2024/03/20 00:22:40;;;;;;;27.95;18.80;;;15.60;88.10;;;;;;5091545;28;20043;-76
2024/03/20 00:25:06;;;;;;;27.92;17.90;;;15.60;87.90;;;;;;5093711;28;20024;-78
2024/03/20 00:27:31;;;;;;;25.27;18.08;;;15.60;88.10;;;;;;5095231;28;20039;-77
2024/03/20 00:29:57;;;;;;;25.25;17.77;;;15.60;88.00;;;;;;5095294;28;20036;-78
2024/03/20 00:32:23;;;;;;;23.88;16.85;;;15.50;88.10;;;;;;5095079;28;20043;-76
2024/03/20 00:34:48;;;;;;;26.40;17.73;;;15.50;88.00;;;;;;5095234;28;20036;-78
2024/03/20 00:37:14;;;;;;;28.75;18.00;;;15.50;87.90;;;;;;5095064;28;20040;-77
2024/03/20 00:39:40;;;;;;;27.02;17.75;;;15.50;88.10;;;;;;5095344;28;20361;-78
2024/03/20 00:42:06;;;;;;;24.05;17.75;;;15.50;88.00;;;;;;5095139;28;20043;-78
2024/03/20 00:44:36;;;;;;;22.55;17.13;;;15.50;88.10;;;;;;5102483;28;20531;-78
2024/03/20 00:47:03;;;;;;;27.67;17.77;;;15.40;87.80;;;;;;5098022;28;20024;-78
2024/03/20 00:49:28;;;;;;;28.25;18.40;;;15.40;88.00;;;;;;5095321;28;20043;-76
2024/03/20 00:51:54;;;;;;;28.80;17.25;;;15.40;88.00;;;;;;5095234;28;20036;-77
2024/03/20 00:54:20;;;;;;;25.40;18.20;;;15.40;88.00;;;;;;5095242;28;20032;-78
2024/03/20 00:56:46;;;;;;;24.15;16.38;;;15.40;87.60;;;;;;5094911;28;20040;-76
2024/03/20 00:59:14;;;;;;;24.73;15.65;;;15.30;87.10;;;;;;5094463;28;20115;-76
2024/03/20 01:01:40;;;;;;;21.25;15.25;;;15.30;86.70;;;;;;5095139;28;20051;-77
2024/03/20 01:04:06;;;;;;;24.88;15.68;;;15.30;86.60;;;;;;5094663;28;20025;-77
2024/03/20 01:06:31;;;;;;;24.17;16.27;;;15.30;86.40;;;;;;5094575;28;20044;-77
2024/03/20 01:08:57;;;;;;;24.15;15.45;;;15.30;86.50;;;;;;5094655;28;20055;-78
2024/03/20 01:11:23;;;;;;;21.70;14.30;;;15.30;85.90;;;;;;5094930;28;20067;-77
2024/03/20 01:13:48;;;;;;;24.60;14.40;;;15.30;85.60;;;;;;5094761;28;20044;-77
2024/03/20 01:16:14;;;;;;;21.40;14.32;;;15.20;85.60;;;;;;5095887;28;20486;-78
2024/03/20 01:18:39;;;;;;;23.40;14.05;;;15.20;85.50;;;;;;5076509;28;20059;-75
2024/03/20 01:21:05;;;;;;;24.15;14.27;;;15.20;85.30;;;;;;5094737;28;20111;-78
2024/03/20 01:23:31;;;;;;;19.52;13.50;;;15.20;84.80;;;;;;5094649;28;20032;-78
2024/03/20 01:25:57;;;;;;;26.20;14.73;;;15.20;85.10;;;;;;5094376;28;20048;-78
2024/03/20 01:28:27;;;;;;;23.95;14.77;;;15.10;84.90;;;;;;5094152;28;20031;-77
2024/03/20 01:30:56;;;;;;;21.75;14.73;;;15.10;84.80;;;;;;5094470;28;20089;-77
2024/03/20 01:33:22;;;;;;;25.52;15.40;;;15.10;84.80;;;;;;5094522;28;20063;-77
2024/03/20 01:35:47;;;;;;;23.35;15.75;;;15.10;85.00;;;;;;5092727;28;20484;-77
2024/03/20 01:38:13;;;;;;;22.45;15.65;;;15.10;85.00;;;;;;5093932;28;20040;-78
2024/03/20 01:40:40;;;;;;;25.23;16.70;;;15.10;85.10;;;;;;5094198;28;20031;-78
2024/03/20 01:43:18;;;;;;;23.50;16.25;;;15.00;85.00;;;;;;5075555;28;20369;-77
2024/03/20 01:45:43;;;;;;;25.65;17.02;;;15.00;85.50;;;;;;5093580;28;20028;-77
2024/03/20 01:48:09;;;;;;;27.55;17.17;;;15.00;85.20;;;;;;5093646;28;20043;-79
2024/03/20 01:50:35;;;;;;;26.23;16.70;;;14.90;85.20;;;;;;5094021;28;20036;-77
2024/03/20 01:53:01;;;;;;;21.98;15.77;;;14.90;85.60;;;;;;5085328;28;20047;-78
2024/03/20 01:55:26;;;;;;;23.58;15.73;;;14.90;85.40;;;;;;5094555;28;20035;-79
2024/03/20 01:57:53;;;;;;;23.85;16.65;;;14.80;85.20;;;;;;5094157;28;20399;-79
2024/03/20 02:00:23;;;;;;;24.88;16.73;;;14.80;84.90;;;;;;5093675;28;20028;-78
2024/03/20 02:02:53;;;;;;;24.60;16.95;;;14.70;85.20;;;;;;5093819;28;20047;-77
2024/03/20 02:05:19;;;;;;;25.20;16.25;;;14.70;85.10;;;;;;5093635;28;20032;-78
2024/03/20 02:07:45;;;;;;;23.95;16.45;;;14.70;85.30;;;;;;5093574;28;20123;-77
2024/03/20 02:10:11;;;;;;;23.50;16.08;;;14.70;84.90;;;;;;5093262;28;21076;-79
2024/03/20 02:12:37;;;;;;;21.42;15.75;;;14.60;84.80;;;;;;5093392;28;20048;-79
2024/03/20 02:15:08;;;;;;;21.35;15.48;;;14.60;84.90;;;;;;5093241;28;20039;-78
2024/03/20 02:17:41;;;;;;;24.33;15.70;;;14.50;84.70;;;;;;5093446;28;20106;-77
2024/03/20 02:20:08;;;;;;;23.77;15.95;;;14.40;84.90;;;;;;5093161;28;20108;-77
2024/03/20 02:22:42;;;;;;;21.30;15.85;;;14.40;84.80;;;;;;5093164;28;20044;-77
2024/03/20 02:25:11;;;;;;;22.92;15.35;;;14.40;84.70;;;;;;5092781;28;20462;-78
2024/03/20 02:27:38;;;;;;;20.30;14.68;;;14.40;84.70;;;;;;5093057;28;20035;-77
2024/03/20 02:30:06;;;;;;;21.00;14.60;;;14.40;84.40;;;;;;5092850;28;20036;-78
2024/03/20 02:32:32;;;;;;;18.77;13.45;;;14.50;84.60;;;;;;5093020;28;20134;-77
2024/03/20 02:34:58;;;;;;;19.85;13.13;;;14.50;84.00;;;;;;5092553;28;20067;-77
2024/03/20 02:37:24;;;;;;;21.15;13.98;;;14.40;83.60;;;;;;5092735;28;20436;-78
2024/03/20 02:39:49;;;;;;;21.95;13.50;;;14.40;83.70;;;;;;5092605;28;20073;-78
2024/03/20 02:42:15;;;;;;;19.60;13.88;;;14.40;83.10;;;;;;5093013;28;20032;-77
2024/03/20 02:44:40;;;;;;;21.58;13.15;;;14.40;83.20;;;;;;5092485;28;20418;-77
2024/03/20 02:47:07;;;;;;;20.00;13.00;;;14.40;83.30;;;;;;5092242;28;20032;-78
2024/03/20 02:49:33;;;;;;;20.95;13.05;;;14.40;82.80;;;;;;5092292;28;20028;-77
2024/03/20 02:51:58;;;;;;;19.52;12.43;;;14.40;82.70;;;;;;5092399;28;20082;-78
2024/03/20 02:54:24;;;;;;;20.35;12.10;;;14.30;82.10;;;;;;5092894;28;20317;-77
2024/03/20 02:56:49;;;;;;;16.02;10.80;;;14.40;82.50;;;;;;5092677;28;20097;-78
2024/03/20 02:59:15;;;;;;;15.93;10.80;;;14.40;82.10;;;;;;5074343;28;20493;-73
2024/03/20 03:01:41;;;;;;;15.20;11.00;;;14.40;81.70;;;;;;5102007;28;20153;-78
2024/03/20 03:04:06;;;;;;;16.90;11.15;;;14.40;81.70;;;;;;5092730;28;20040;-78
2024/03/20 03:06:32;;;;;;;16.58;11.23;;;14.40;81.70;;;;;;5092628;28;20025;-77
2024/03/20 03:08:58;;;;;;;15.55;11.55;;;14.40;81.60;;;;;;5092859;28;20174;-77
2024/03/20 03:11:23;;;;;;;17.90;12.52;;;14.40;81.50;;;;;;5092595;28;20126;-78
2024/03/20 03:13:49;;;;;;;16.50;11.32;;;14.40;81.80;;;;;;5093039;28;20048;-77
2024/03/20 03:16:14;;;;;;;15.63;11.07;;;14.40;81.70;;;;;;5092675;28;20024;-78
2024/03/20 03:18:40;;;;;;;18.33;11.23;;;14.30;81.60;;;;;;5093310;28;20508;-78
2024/03/20 03:21:10;;;;;;;16.15;11.90;;;14.40;81.70;;;;;;5092460;28;20024;-78
2024/03/20 03:23:36;;;;;;;23.98;14.52;;;14.40;81.80;;;;;;5092619;28;20020;-79
2024/03/20 03:26:03;;;;;;;21.45;14.70;;;14.30;81.80;;;;;;5092450;28;20040;-77
2024/03/20 03:28:29;;;;;;;19.83;13.60;;;14.20;82.20;;;;;;5092108;28;20028;-78
2024/03/20 03:30:54;;;;;;;21.10;12.52;;;14.10;82.40;;;;;;5091928;28;20081;-77
2024/03/20 03:33:20;;;;;;;21.75;13.63;;;14.10;82.60;;;;;;5092434;28;20036;-77
2024/03/20 03:35:46;;;;;;;22.75;14.30;;;14.10;82.80;;;;;;5091755;28;20029;-77
2024/03/20 03:38:11;;;;;;;24.02;14.73;;;14.00;82.90;;;;;;5092360;28;20051;-78
2024/03/20 03:40:37;;;;;;;21.42;13.32;;;14.00;83.20;;;;;;5092382;28;20043;-78
2024/03/20 03:43:03;;;;;;;24.25;14.95;;;13.90;83.40;;;;;;5092211;28;20043;-78
2024/03/20 03:45:28;;;;;;;22.40;14.10;;;13.90;83.70;;;;;;5091885;28;20123;-78
2024/03/20 03:47:54;;;;;;;25.15;14.05;;;13.90;83.90;;;;;;5092260;28;20040;-76
2024/03/20 03:50:19;;;;;;;22.38;13.75;;;13.90;84.10;;;;;;5091703;28;20032;-77
2024/03/20 03:52:45;;;;;;;21.98;13.82;;;13.90;83.90;;;;;;5073739;28;20415;-76
2024/03/20 03:55:11;;;;;;;23.02;14.70;;;13.90;83.70;;;;;;5091434;28;20028;-77
2024/03/20 03:57:36;;;;;;;24.30;13.73;;;13.90;83.80;;;;;;5091799;28;20043;-77
2024/03/20 04:00:03;;;;;;;20.40;13.45;;;13.90;83.90;;;;;;5094684;28;20024;-77
2024/03/20 04:02:28;;;;;;;23.85;13.55;;;13.90;84.10;;;;;;5095514;28;20082;-78
2024/03/20 04:04:54;;;;;;;15.50;10.68;;;13.90;84.00;;;;;;5095521;28;20056;-77
2024/03/20 04:07:20;;;;;;;18.33;10.90;;;13.90;83.60;;;;;;5096454;28;20036;-77
2024/03/20 04:09:46;;;;;;;19.05;11.30;;;13.90;83.30;;;;;;5105717;28;20106;-77
2024/03/20 04:12:12;;;;;;;14.18;9.88;;;13.90;83.10;;;;;;5098528;28;20495;-78
2024/03/20 04:14:37;;;;;;;19.42;10.45;;;14.00;82.70;;;;;;5095999;28;20028;-77
2024/03/20 04:19:41;;;;;;;14.50;10.43;;;14.00;82.40;;;;;;5080522;28;20525;-72
2024/03/20 04:22:07;;;;;;;16.67;11.55;;;14.00;82.20;;;;;;5115558;28;20073;-72
2024/03/20 04:24:33;;;;;;;18.25;12.18;;;14.00;82.70;;;;;;5115882;28;20115;-72
2024/03/20 04:26:59;;;;;;;17.15;12.38;;;14.00;82.30;;;;;;5115305;28;20109;-72
2024/03/20 04:29:25;;;;;;;16.58;11.65;;;13.90;82.40;;;;;;5110672;28;20042;-72
2024/03/20 04:31:51;;;;;;;19.85;11.85;;;13.90;82.40;;;;;;5094883;28;20074;-72
2024/03/20 04:34:17;;;;;;;15.50;11.80;;;13.80;82.20;;;;;;5095205;28;20068;-71
2024/03/20 04:36:43;;;;;;;17.10;10.80;;;13.70;82.00;;;;;;5095292;28;20387;-72
2024/03/20 04:39:08;;;;;;;15.20;10.43;;;13.60;81.90;;;;;;5092419;28;20039;-72
2024/03/20 04:41:34;;;;;;;16.90;10.63;;;13.60;81.90;;;;;;5074270;28;20029;-71
2024/03/20 04:44:00;;;;;;;14.88;10.50;;;13.50;82.00;;;;;;5073327;28;20123;-71
2024/03/20 04:46:25;;;;;;;15.43;10.20;;;13.40;82.00;;;;;;5074928;28;20036;-74
2024/03/20 04:48:51;;;;;;;18.23;10.27;;;13.40;82.00;;;;;;5075572;28;20533;-74
2024/03/20 04:51:17;;;;;;;14.77;10.30;;;13.30;82.20;;;;;;5093682;28;20100;-72
2024/03/20 04:53:42;;;;;;;15.90;10.18;;;13.40;82.30;;;;;;5094625;28;20114;-72
2024/03/20 04:56:08;;;;;;;15.55;9.82;;;13.30;82.20;;;;;;5094449;28;20084;-73
2024/03/20 04:58:33;;;;;;;15.05;8.98;;;13.40;82.30;;;;;;5076469;28;20075;-72
2024/03/20 05:00:59;;;;;;;14.95;9.55;;;13.40;82.30;;;;;;5094532;28;20142;-72
2024/03/20 05:03:24;;;;;;;13.25;9.02;;;13.50;82.30;;;;;;5094477;28;20028;-73
2024/03/20 05:05:50;;;;;;;14.65;9.55;;;13.50;82.00;;;;;;5094499;28;20158;-73
2024/03/20 05:08:16;;;;;;;14.30;9.38;;;13.50;82.10;;;;;;5094635;28;20032;-71
2024/03/20 05:10:42;;;;;;;13.40;8.77;;;13.50;82.00;;;;;;5093145;28;20032;-73
2024/03/20 05:13:08;;;;;;;15.48;9.75;;;13.40;81.90;;;;;;5094175;28;20044;-71
2024/03/20 05:15:39;;;;;;;15.13;9.70;;;13.40;82.00;;;;;;5093910;28;20039;-73
2024/03/20 05:18:05;;;;;;;13.82;9.57;;;13.50;82.30;;;;;;5094103;28;20116;-73
2024/03/20 05:20:30;;;;;;;13.52;10.15;;;13.50;82.20;;;;;;5093880;28;20036;-71
2024/03/20 05:22:56;;;;;;;15.40;9.82;;;13.50;82.00;;;;;;5093862;28;20028;-71
2024/03/20 05:25:21;;;;;;;14.07;9.82;;;13.40;82.00;;;;;;5093836;28;20036;-73
2024/03/20 05:27:47;;;;;;;14.80;10.65;;;13.30;82.20;;;;;;5093967;28;20058;-72
2024/03/20 05:30:13;;;;;;;16.25;10.55;;;13.40;82.40;;;;;;5089409;28;20051;-72
2024/03/20 05:32:38;;;;;;;16.30;10.88;;;13.40;82.60;;;;;;5093732;28;20067;-74
2024/03/20 05:35:05;;;;;;;15.13;11.18;;;13.40;82.50;;;;;;5093721;28;20045;-73
2024/03/20 05:37:30;;;;;;;16.52;10.20;;;13.30;82.50;;;;;;5084410;28;20032;-72
2024/03/20 05:39:56;;;;;;;17.00;11.25;;;13.30;82.50;;;;;;5089174;28;20047;-73
2024/03/20 05:42:21;;;;;;;15.45;10.48;;;13.30;82.60;;;;;;5090177;28;20396;-73
2024/03/20 05:44:48;;;;;;;14.70;11.00;;;13.30;82.80;;;;;;5073461;28;20036;-73
2024/03/20 05:47:14;;;;;;;13.82;9.70;;;13.30;82.80;;;;;;5073110;28;20392;-74
2024/03/20 05:49:42;;;;;;;15.35;9.88;;;13.40;82.70;;;;;;5079998;28;20028;-71
2024/03/20 05:52:07;;;;;;;15.07;9.48;;;13.40;82.50;;;;;;5093376;28;20066;-70
2024/03/20 05:54:33;;;;;;;12.32;8.38;;;13.40;82.40;;;;;;5090030;28;20791;-73
2024/03/20 05:56:59;;;;;;;18.20;8.77;;;13.50;82.10;;;;;;5073116;28;20025;-73
2024/03/20 05:59:24;;;;;;;14.43;8.23;;;13.50;82.00;;;;;;5060858;28;20028;-72
2024/03/20 06:01:51;;;;;;;10.07;7.80;;;13.50;81.10;;;;;;5093306;28;20036;-72
2024/03/20 06:04:17;;;;;;;9.95;6.97;;;13.60;81.20;;;;;;5074520;28;20044;-73
2024/03/20 06:06:45;;;;;;;11.93;7.93;;;13.50;80.80;;;;;;5093717;28;20031;-72
2024/03/20 06:09:13;;;;;;;13.52;7.57;;;13.50;80.80;;;;;;5093275;28;20028;-72
2024/03/20 06:11:39;;;;;;;13.52;7.60;;;13.60;80.70;;;;;;5092878;28;20132;-73
2024/03/20 06:14:05;;;;;;;10.98;7.47;;;13.70;80.40;;;;;;5092610;28;20097;-73
2024/03/20 06:16:31;;;;;;;11.60;7.78;;;14.30;80.20;;;;;;5092919;28;20107;-72
2024/03/20 06:18:57;;;;;;;10.73;7.15;;;15.30;78.00;;;;;;5092000;28;20119;-72
2024/03/20 06:21:23;;;;;;;11.02;7.60;;;16.00;76.00;;;;;;5072088;28;20066;-73
2024/03/20 06:23:48;;;;;;;11.13;7.13;;;16.60;75.00;;;;;;5072299;28;20337;-72
2024/03/20 06:26:15;;;;;;;11.05;6.65;;;16.90;73.10;;;;;;5072678;28;20072;-72
2024/03/20 06:28:40;;;;;;;11.45;7.78;;;17.50;72.00;;;;;;5072452;28;20458;-73
2024/03/20 06:31:06;;;;;;;9.93;6.82;;;18.10;70.20;;;;;;5086993;28;20103;-73
2024/03/20 06:33:33;;;;;;;9.43;6.68;;;18.70;69.10;;;;;;5072041;28;20140;-74
2024/03/20 06:35:59;;;;;;;9.77;6.53;;;19.30;67.30;;;;;;5071917;28;20036;-72
2024/03/20 06:38:25;;;;;;;11.73;6.75;;;20.00;65.80;;;;;;5072067;28;20040;-72
2024/03/20 06:40:51;;;;;;;11.02;7.00;;;20.90;64.20;;;;;;5088590;28;20051;-73
2024/03/20 06:43:17;;;;;;;12.40;8.40;;;21.40;62.50;;;;;;5092086;28;20403;-80
2024/03/20 06:45:49;;;;;;;10.80;6.80;;;22.00;61.50;;;;;;5091876;28;20034;-73
2024/03/20 06:48:15;;;;;;;10.40;7.57;;;22.40;59.50;;;;;;5092321;28;20479;-73
2024/03/20 06:50:45;;;;;;;11.82;8.40;;;22.80;57.50;;;;;;5076898;28;20472;-73
2024/03/20 06:53:10;;;;;;;13.52;6.53;;;22.90;57.10;;;;;;5071572;28;20488;-72
2024/03/20 06:55:40;;;;;;;9.88;7.05;;;23.10;56.80;;;;;;5073448;28;20182;-75
2024/03/20 06:58:06;;;;;;;11.95;8.48;;;23.20;56.00;;;;;;5089177;28;20128;-74
2024/03/20 07:00:32;;;;;;;12.02;7.28;;;23.40;55.50;;;;;;5071151;28;20119;-74
2024/03/20 07:03:00;;;;;;;11.90;6.28;;;23.80;54.70;;;;;;5071594;28;20504;-73
2024/03/20 07:05:26;;;;;;;13.23;9.90;;;24.10;54.40;;;;;;5071190;28;20090;-74
2024/03/20 07:07:51;;;;;;;8.68;6.15;;;24.50;53.50;;;;;;5071802;28;20040;-74
2024/03/20 07:10:17;;;;;;;9.20;6.32;;;24.70;52.90;;;;;;5083316;28;20047;-73
2024/03/20 07:12:43;;;;;;;10.85;6.18;;;25.00;52.00;;;;;;5071481;28;20047;-73
2024/03/20 07:15:10;;;;;;;12.05;7.00;;;24.60;51.70;;;;;;5071245;28;20036;-73
2024/03/20 07:17:37;;;;;;;10.93;6.00;;;23.30;52.20;;;;;;5071570;28;20537;-74
2024/03/20 07:20:06;;;;;;;10.60;6.18;;;23.20;52.40;;;;;;5082806;28;20437;-75
2024/03/20 07:22:35;;;;;;;10.88;5.72;;;22.60;52.70;;;;;;5091873;28;20062;-74
2024/03/20 07:25:01;;;;;;;10.95;5.82;;;22.50;53.40;;;;;;5091576;28;20068;-73
2024/03/20 07:27:28;;;;;;;12.45;5.85;;;23.00;52.30;;;;;;5091686;28;20024;-73
2024/03/20 07:29:53;;;;;;;14.13;6.20;;;23.00;52.00;;;;;;5087462;28;20565;-74
2024/03/20 07:32:19;;;;;;;16.30;5.97;;;23.50;51.90;;;;;;5077926;28;20139;-74
2024/03/20 07:34:45;;;;;;;10.65;6.20;;;24.20;50.80;;;;;;5074000;28;20029;-75
2024/03/20 07:37:11;;;;;;;12.52;5.60;;;23.60;50.90;;;;;;5076708;28;20029;-75
2024/03/20 07:39:38;;;;;;;13.48;6.63;;;22.50;51.50;;;;;;5082678;28;20028;-74
2024/03/20 07:42:04;;;;;;;13.93;6.28;;;21.60;52.60;;;;;;5095765;28;20506;-74
2024/03/20 07:44:30;;;;;;;10.63;5.95;;;20.90;53.70;;;;;;5095847;28;20033;-77
2024/03/20 07:46:57;;;;;;;11.48;5.60;;;20.30;54.20;;;;;;5095838;28;20036;-77
2024/03/20 07:49:23;;;;;;;10.15;6.13;;;19.70;54.50;;;;;;5090818;28;20084;-76
2024/03/20 07:51:50;;;;;;;13.32;6.90;;;19.30;55.30;;;;;;5096000;28;20103;-74
2024/03/20 07:54:15;;;;;;;13.63;6.25;;;19.10;56.00;;;;;;5095754;28;20520;-75
2024/03/20 07:56:41;;;;;;;13.02;6.57;;;19.10;56.50;;;;;;5095948;28;20066;-76
2024/03/20 07:59:07;;;;;;;11.45;6.45;;;19.00;56.90;;;;;;5082309;28;20036;-74
2024/03/20 08:01:38;;;;;;;10.45;5.55;;;18.80;56.50;;;;;;5076018;28;20105;-77
2024/03/20 08:04:04;;;;;;;9.10;5.68;;;18.60;57.40;;;;;;5076519;28;20036;-76
2024/03/20 08:06:29;;;;;;;10.88;5.72;;;18.60;57.50;;;;;;5074896;28;20050;-76
2024/03/20 08:08:55;;;;;;;12.07;6.63;;;18.60;58.00;;;;;;5072235;28;20465;-77
2024/03/20 08:11:21;;;;;;;11.80;6.85;;;18.40;57.50;;;;;;5075450;28;20540;-72
2024/03/20 08:13:46;;;;;;;12.50;7.47;;;18.40;58.90;;;;;;5074878;28;20045;-71
2024/03/20 08:16:12;;;;;;;13.60;7.50;;;18.30;59.30;;;;;;5075579;28;20113;-72
2024/03/20 08:18:38;;;;;;;11.20;7.10;;;18.30;60.00;;;;;;5080662;28;20173;-70
2024/03/20 08:21:04;;;;;;;15.70;6.45;;;18.20;60.30;;;;;;5076555;28;20112;-70
2024/03/20 08:23:30;;;;;;;12.05;7.32;;;18.20;60.30;;;;;;5093394;28;20057;-70
2024/03/20 08:25:57;;;;;;;11.02;6.75;;;18.10;60.50;;;;;;5094462;28;20052;-71
2024/03/20 08:28:22;;;;;;;10.52;7.00;;;18.10;61.20;;;;;;5089984;28;20122;-70
2024/03/20 08:30:50;;;;;;;12.85;7.13;;;18.20;61.70;;;;;;5093451;28;20042;-70
2024/03/20 08:33:17;;;;;;;23.27;8.55;;;18.10;61.50;;;;;;5074284;28;20086;-70
2024/03/20 08:35:42;;;;;;;15.57;7.00;;;18.20;61.70;;;;;;5073835;28;20036;-73
2024/03/20 08:38:08;;;;;;;14.77;7.15;;;18.10;61.50;;;;;;5073049;28;20352;-71
2024/03/20 08:40:34;;;;;;;11.60;6.93;;;18.10;61.40;;;;;;5089967;28;20510;-69
2024/03/20 08:42:59;;;;;;;10.90;6.38;;;18.00;61.40;;;;;;5094319;28;20364;-71
2024/03/20 08:45:25;;;;;;;18.85;7.25;;;18.00;61.30;;;;;;5093640;28;20024;-72
2024/03/20 08:47:52;;;;;;;11.38;6.57;;;18.00;61.40;;;;;;5094590;28;20031;-71
2024/03/20 08:50:19;;;;;;;13.32;6.75;;;17.90;61.20;;;;;;5085814;28;20138;-71
2024/03/20 08:52:45;;;;;;;13.68;7.55;;;17.90;61.40;;;;;;5094589;28;20065;-72
2024/03/20 08:55:11;;;;;;;11.95;6.00;;;17.80;62.20;;;;;;5094271;28;20495;-71
2024/03/20 08:57:37;;;;;;;13.15;5.93;;;17.70;61.90;;;;;;5093683;28;20077;-72
2024/03/20 09:00:06;;;;;;;12.65;5.95;;;17.70;62.50;;;;;;5079912;28;20086;-71
2024/03/20 09:02:32;;;;;;;17.45;6.28;;;17.60;62.80;;;;;;5074398;28;20507;-72
2024/03/20 09:04:57;;;;;;;11.30;6.75;;;17.60;63.10;;;;;;5057103;28;20052;-72
2024/03/20 09:07:23;;;;;;;10.65;6.82;;;17.70;63.40;;;;;;5073471;28;20032;-70
2024/03/20 09:09:48;;;;;;;12.57;6.75;;;17.70;63.40;;;;;;5076159;28;20447;-69
2024/03/20 09:12:14;;;;;;;12.35;6.68;;;17.80;63.40;;;;;;5073235;28;20040;-70
2024/03/20 09:14:40;;;;;;;10.25;6.57;;;17.80;63.40;;;;;;5073755;28;20032;-70
2024/03/20 09:17:05;;;;;;;10.82;5.80;;;17.90;63.70;;;;;;5072552;28;20074;-71
2024/03/20 09:19:31;;;;;;;12.88;6.47;;;17.90;63.80;;;;;;5085014;28;20119;-71
2024/03/20 09:21:57;;;;;;;8.85;6.07;;;17.90;63.80;;;;;;5079445;28;20032;-69
2024/03/20 09:24:23;;;;;;;9.63;6.18;;;18.00;63.80;;;;;;5093242;28;20032;-70
2024/03/20 09:26:53;;;;;;;13.68;6.10;;;18.00;63.90;;;;;;5093539;28;20032;-71
2024/03/20 09:29:18;;;;;;;12.35;6.05;;;18.00;64.10;;;;;;5085880;28;20046;-73
2024/03/20 09:31:44;;;;;;;10.63;6.88;;;18.10;64.10;;;;;;5082478;28;20039;-70
2024/03/20 09:34:10;;;;;;;9.38;6.05;;;18.20;63.90;;;;;;5093557;28;20219;-71
2024/03/20 09:36:36;;;;;;;12.32;6.80;;;18.20;63.90;;;;;;5092997;28;20444;-71
2024/03/20 09:39:03;;;;;;;11.80;5.93;;;18.30;63.80;;;;;;5086695;28;20067;-71
2024/03/20 09:41:31;;;;;;;11.30;7.45;;;18.30;64.00;;;;;;5090655;28;20386;-72
2024/03/20 09:43:58;;;;;;;11.52;6.65;;;18.40;64.00;;;;;;5093123;28;20128;-71
2024/03/20 09:46:25;;;;;;;10.95;7.35;;;18.50;64.00;;;;;;5092950;28;20063;-76
2024/03/20 09:48:53;;;;;;;15.82;6.78;;;18.60;64.60;;;;;;5088533;28;20032;-73
2024/03/20 09:51:20;;;;;;;11.10;6.38;;;18.70;63.90;;;;;;5076664;28;20114;-71
2024/03/20 09:53:51;;;;;;;10.63;6.72;;;18.70;63.70;;;;;;5091023;28;20058;-71
2024/03/20 09:56:21;;;;;;;9.55;6.35;;;18.80;63.60;;;;;;5067152;28;20032;-72
2024/03/20 09:58:48;;;;;;;12.85;6.10;;;18.80;63.80;;;;;;5085326;28;20491;-71
2024/03/20 10:01:15;;;;;;;10.77;5.53;;;18.90;63.60;;;;;;5092656;28;20043;-70
2024/03/20 10:03:43;;;;;;;10.18;6.00;;;18.90;63.80;;;;;;5093977;28;20475;-71
2024/03/20 10:06:09;;;;;;;9.65;5.75;;;19.00;63.70;;;;;;5093433;28;20040;-70
2024/03/20 10:08:39;;;;;;;11.35;6.10;;;19.10;63.70;;;;;;5087506;28;20414;-71
2024/03/20 10:11:08;;;;;;;8.90;5.25;;;19.20;63.30;;;;;;5092737;28;20067;-71
2024/03/20 10:13:40;;;;;;;12.50;5.82;;;19.20;62.30;;;;;;5092943;28;20078;-71
2024/03/20 10:16:09;;;;;;;8.85;5.10;;;19.20;61.90;;;;;;5092920;28;20115;-72
2024/03/20 21:22:39;;;;;;;18.33;12.27;;;16.50;90.20;;;;;;5095589;28;20526;-77
2024/03/20 21:25:08;;;;;;;18.52;11.85;;;16.40;90.30;;;;;;5093689;28;20127;-75
2024/03/20 21:27:35;;;;;;;16.42;12.38;;;16.40;90.40;;;;;;5075472;28;20047;-73
2024/03/20 21:30:01;;;;;;;20.70;12.70;;;16.40;90.50;;;;;;5094169;28;20028;-74
2024/03/20 21:32:27;;;;;;;18.17;12.73;;;16.40;90.60;;;;;;5077424;28;20082;-73
2024/03/20 21:34:53;;;;;;;19.50;12.88;;;16.40;90.70;;;;;;5094351;28;20069;-73
2024/03/20 21:37:20;;;;;;;17.95;12.60;;;16.40;90.70;;;;;;5094576;28;20040;-73
2024/03/20 21:39:46;;;;;;;19.90;13.90;;;16.30;90.80;;;;;;5094648;28;20062;-74
2024/03/20 21:42:16;;;;;;;19.02;14.20;;;16.30;90.90;;;;;;5093312;28;20032;-74
2024/03/20 21:44:45;;;;;;;25.55;15.73;;;16.30;90.90;;;;;;5094717;28;20377;-76
2024/03/20 21:47:18;;;;;;;21.08;15.13;;;16.30;91.00;;;;;;5095269;28;20059;-75
2024/03/20 21:49:44;;;;;;;22.02;16.23;;;16.20;91.10;;;;;;5094914;28;20533;-75
2024/03/20 21:52:10;;;;;;;29.98;16.65;;;16.20;91.10;;;;;;5076275;28;20060;-75
2024/03/20 21:54:36;;;;;;;32.70;15.95;;;16.20;91.10;;;;;;5095286;28;20040;-77
2024/03/20 21:57:03;;;;;;;25.52;14.85;;;16.20;91.20;;;;;;5094375;28;20028;-74
2024/03/20 21:59:32;;;;;;;22.30;13.82;;;16.10;91.20;;;;;;5076038;28;20400;-74
2024/03/20 22:01:58;;;;;;;28.42;14.15;;;16.10;91.20;;;;;;5093073;28;20070;-78
2024/03/20 22:04:24;;;;;;;27.85;13.73;;;16.10;91.40;;;;;;5094243;28;20036;-77
2024/03/20 22:06:50;;;;;;;17.10;12.30;;;16.10;91.40;;;;;;5093904;28;20043;-75
2024/03/20 22:09:16;;;;;;;19.58;13.93;;;16.10;91.50;;;;;;5093664;28;20027;-77
2024/03/20 22:11:45;;;;;;;19.95;12.75;;;16.10;91.50;;;;;;5077292;28;20100;-78
2024/03/20 22:14:13;;;;;;;20.08;13.25;;;16.00;91.50;;;;;;5094117;28;20050;-77
2024/03/20 22:16:42;;;;;;;16.58;12.88;;;16.00;91.60;;;;;;5093785;28;20025;-77
2024/03/20 22:19:09;;;;;;;17.00;12.73;;;16.00;91.70;;;;;;5094143;28;20028;-77
2024/03/20 22:21:35;;;;;;;22.85;13.20;;;16.00;91.70;;;;;;5094241;28;20087;-76
2024/03/20 22:24:01;;;;;;;25.45;13.90;;;16.00;91.80;;;;;;5104517;28;20511;-76
2024/03/20 22:26:28;;;;;;;21.40;13.13;;;16.00;91.80;;;;;;5094180;28;20032;-77
2024/03/20 22:28:54;;;;;;;17.92;12.65;;;16.00;91.90;;;;;;5095977;28;20043;-77
2024/03/20 22:31:21;;;;;;;19.02;13.02;;;16.00;91.90;;;;;;5076220;28;20032;-76
2024/03/20 22:33:47;;;;;;;15.82;12.10;;;16.00;92.00;;;;;;5094075;28;20396;-79
2024/03/20 22:36:13;;;;;;;15.13;12.20;;;16.00;92.20;;;;;;5094199;28;20055;-77
2024/03/20 22:38:38;;;;;;;15.82;11.70;;;15.90;92.20;;;;;;5093941;28;20510;-77
2024/03/20 22:41:04;;;;;;;16.20;11.57;;;15.90;92.20;;;;;;5094836;28;20028;-78
2024/03/20 22:43:31;;;;;;;15.60;11.35;;;15.90;92.20;;;;;;5094129;28;20499;-77
2024/03/20 22:46:00;;;;;;;14.80;11.38;;;15.90;92.30;;;;;;5093431;28;20028;-76
2024/03/20 22:48:27;;;;;;;16.65;11.15;;;15.90;92.20;;;;;;5091505;28;20039;-76
2024/03/20 22:50:53;;;;;;;14.82;11.98;;;15.90;92.40;;;;;;5073191;28;20040;-77
2024/03/20 22:53:19;;;;;;;15.38;11.55;;;15.90;92.40;;;;;;5073352;28;20488;-77
2024/03/20 22:55:48;;;;;;;16.67;11.35;;;15.90;92.40;;;;;;5091183;28;20110;-77
2024/03/20 22:58:14;;;;;;;16.30;11.90;;;15.80;92.30;;;;;;5093198;28;20083;-75
2024/03/20 23:00:45;;;;;;;13.68;11.32;;;15.80;92.40;;;;;;5075304;28;20068;-77
2024/03/20 23:03:12;;;;;;;15.60;12.48;;;15.80;92.50;;;;;;5093545;28;20036;-77
2024/03/20 23:05:38;;;;;;;20.30;13.55;;;15.70;92.50;;;;;;5093736;28;20107;-77
2024/03/20 23:08:04;;;;;;;16.40;13.30;;;15.70;92.50;;;;;;5093404;28;20119;-77
2024/03/20 23:10:30;;;;;;;17.95;13.25;;;15.70;92.50;;;;;;5093139;28;20134;-75
2024/03/20 23:12:56;;;;;;;18.33;13.00;;;15.70;92.50;;;;;;5093768;28;20043;-77
2024/03/20 23:15:22;;;;;;;20.13;13.63;;;15.80;92.60;;;;;;5093254;28;20111;-77
2024/03/20 23:17:48;;;;;;;18.48;15.15;;;15.80;92.50;;;;;;5094456;28;20369;-77
2024/03/20 23:20:14;;;;;;;20.05;13.50;;;15.90;92.40;;;;;;5092943;28;20093;-78
2024/03/20 23:22:40;;;;;;;17.40;13.43;;;15.90;92.30;;;;;;5092712;28;20071;-78
2024/03/20 23:25:07;;;;;;;18.00;12.43;;;15.90;92.50;;;;;;5092869;28;20107;-77
2024/03/20 23:27:33;;;;;;;18.45;12.13;;;15.90;92.40;;;;;;5092310;28;20432;-77
2024/03/20 23:29:59;;;;;;;17.80;12.13;;;16.00;92.40;;;;;;5092407;28;20067;-77
2024/03/20 23:32:24;;;;;;;18.38;12.48;;;16.10;92.40;;;;;;5092456;28;20036;-76